sensor_id;sensor_type;location;lat;lon;timestamp;P1;durP1;ratioP1;P2;durP2;ratioP2
19163;SDS011;9714;51.208;4.242;2022-10-19T00:01:30;20.60;;;3.67;;
19163;SDS011;9714;51.208;4.242;2022-10-19T00:04:32;21.40;;;3.93;;
19163;SDS011;9714;51.208;4.242;2022-10-19T00:07:10;19.40;;;3.93;;
19163;SDS011;9714;51.208;4.242;2022-10-19T00:09:53;23.63;;;4.17;;
19163;SDS011;9714;51.208;4.242;2022-10-19T00:12:30;18.43;;;4.27;;
19163;SDS011;9714;51.208;4.242;2022-10-19T00:15:07;15.57;;;3.93;;
19163;SDS011;9714;51.208;4.242;2022-10-19T00:20:53;15.30;;;3.40;;
19163;SDS011;9714;51.208;4.242;2022-10-19T01:01:35;22.33;;;5.17;;
19163;SDS011;9714;51.208;4.242;2022-10-19T02:28:00;12.20;;;4.33;;
19163;SDS011;9714;51.208;4.242;2022-10-19T03:50:00;17.73;;;4.83;;
19163;SDS011;9714;51.208;4.242;2022-10-19T03:52:55;23.47;;;4.70;;
19163;SDS011;9714;51.208;4.242;2022-10-19T03:55:28;15.70;;;5.10;;
19163;SDS011;9714;51.208;4.242;2022-10-19T04:15:42;25.10;;;5.97;;
19163;SDS011;9714;51.208;4.242;2022-10-19T04:49:43;19.87;;;5.20;;
19163;SDS011;9714;51.208;4.242;2022-10-19T10:55:47;20.63;;;4.78;;
19163;SDS011;9714;51.208;4.242;2022-10-19T11:01:34;19.38;;;4.93;;
19163;SDS011;9714;51.208;4.242;2022-10-19T11:04:08;20.75;;;4.40;;
19163;SDS011;9714;51.208;4.242;2022-10-19T11:07:15;17.70;;;4.97;;
19163;SDS011;9714;51.208;4.242;2022-10-19T11:10:02;16.83;;;5.07;;
19163;SDS011;9714;51.208;4.242;2022-10-19T11:22:17;18.90;;;4.60;;
19163;SDS011;9714;51.208;4.242;2022-10-19T11:28:34;17.38;;;4.93;;
19163;SDS011;9714;51.208;4.242;2022-10-19T11:31:17;18.70;;;4.72;;
19163;SDS011;9714;51.208;4.242;2022-10-19T11:36:58;18.40;;;5.07;;
19163;SDS011;9714;51.208;4.242;2022-10-19T11:39:37;14.05;;;4.40;;
19163;SDS011;9714;51.208;4.242;2022-10-19T11:42:23;15.98;;;3.95;;
19163;SDS011;9714;51.208;4.242;2022-10-19T11:48:29;14.25;;;4.35;;
19163;SDS011;9714;51.208;4.242;2022-10-19T11:51:39;14.40;;;3.95;;
19163;SDS011;9714;51.208;4.242;2022-10-19T11:57:42;12.75;;;4.00;;
19163;SDS011;9714;51.208;4.242;2022-10-19T12:00:41;14.25;;;5.05;;
19163;SDS011;9714;51.208;4.242;2022-10-19T12:03:20;15.30;;;4.65;;
19163;SDS011;9714;51.208;4.242;2022-10-19T12:06:15;13.73;;;4.47;;
19163;SDS011;9714;51.208;4.242;2022-10-19T12:12:02;25.58;;;5.38;;
19163;SDS011;9714;51.208;4.242;2022-10-19T12:18:27;12.45;;;3.92;;
19163;SDS011;9714;51.208;4.242;2022-10-19T12:21:10;19.38;;;4.30;;
19163;SDS011;9714;51.208;4.242;2022-10-19T12:23:49;19.83;;;4.85;;
19163;SDS011;9714;51.208;4.242;2022-10-19T12:26:24;15.52;;;4.80;;
19163;SDS011;9714;51.208;4.242;2022-10-19T12:31:55;16.17;;;4.40;;
19163;SDS011;9714;51.208;4.242;2022-10-19T12:34:30;15.38;;;4.60;;
19163;SDS011;9714;51.208;4.242;2022-10-19T12:39:48;13.48;;;4.20;;
19163;SDS011;9714;51.208;4.242;2022-10-19T12:42:30;18.05;;;4.68;;
19163;SDS011;9714;51.208;4.242;2022-10-19T12:51:06;14.93;;;4.28;;
19163;SDS011;9714;51.208;4.242;2022-10-19T12:53:44;15.23;;;4.28;;
19163;SDS011;9714;51.208;4.242;2022-10-19T12:56:17;15.18;;;3.95;;
19163;SDS011;9714;51.208;4.242;2022-10-19T12:58:51;21.45;;;4.72;;
19163;SDS011;9714;51.208;4.242;2022-10-19T13:01:24;20.40;;;4.05;;
19163;SDS011;9714;51.208;4.242;2022-10-19T13:04:06;15.43;;;4.45;;
19163;SDS011;9714;51.208;4.242;2022-10-19T13:06:41;12.65;;;4.10;;
19163;SDS011;9714;51.208;4.242;2022-10-19T13:09:20;13.07;;;4.18;;
19163;SDS011;9714;51.208;4.242;2022-10-19T13:14:59;12.63;;;4.20;;
19163;SDS011;9714;51.208;4.242;2022-10-19T13:17:45;10.77;;;4.43;;
19163;SDS011;9714;51.208;4.242;2022-10-19T13:23:37;16.33;;;4.00;;
19163;SDS011;9714;51.208;4.242;2022-10-19T13:26:23;14.52;;;3.55;;
19163;SDS011;9714;51.208;4.242;2022-10-19T13:29:22;15.30;;;3.80;;
19163;SDS011;9714;51.208;4.242;2022-10-19T13:31:59;14.38;;;3.80;;
19163;SDS011;9714;51.208;4.242;2022-10-19T13:35:23;12.52;;;4.07;;
19163;SDS011;9714;51.208;4.242;2022-10-19T13:41:05;16.42;;;3.40;;
19163;SDS011;9714;51.208;4.242;2022-10-19T13:43:37;12.40;;;3.67;;
19163;SDS011;9714;51.208;4.242;2022-10-19T13:46:21;19.85;;;4.32;;
19163;SDS011;9714;51.208;4.242;2022-10-19T13:49:09;18.73;;;4.18;;
19163;SDS011;9714;51.208;4.242;2022-10-19T13:51:54;13.32;;;4.10;;
19163;SDS011;9714;51.208;4.242;2022-10-19T13:54:45;20.67;;;4.50;;
19163;SDS011;9714;51.208;4.242;2022-10-19T13:57:29;19.08;;;4.25;;
19163;SDS011;9714;51.208;4.242;2022-10-19T14:00:13;14.98;;;4.25;;
19163;SDS011;9714;51.208;4.242;2022-10-19T14:02:53;13.65;;;4.43;;
19163;SDS011;9714;51.208;4.242;2022-10-19T14:11:25;20.65;;;5.25;;
19163;SDS011;9714;51.208;4.242;2022-10-19T14:14:14;14.88;;;4.50;;
19163;SDS011;9714;51.208;4.242;2022-10-19T14:16:53;15.13;;;4.82;;
19163;SDS011;9714;51.208;4.242;2022-10-19T14:19:23;17.63;;;4.65;;
19163;SDS011;9714;51.208;4.242;2022-10-19T14:21:57;17.42;;;5.40;;
19163;SDS011;9714;51.208;4.242;2022-10-19T14:24:30;17.73;;;5.35;;
19163;SDS011;9714;51.208;4.242;2022-10-19T14:27:03;20.38;;;5.07;;
19163;SDS011;9714;51.208;4.242;2022-10-19T14:29:34;17.17;;;5.05;;
19163;SDS011;9714;51.208;4.242;2022-10-19T14:32:11;32.60;;;5.57;;
19163;SDS011;9714;51.208;4.242;2022-10-19T14:34:46;21.20;;;5.50;;
19163;SDS011;9714;51.208;4.242;2022-10-19T14:37:18;17.42;;;5.13;;
19163;SDS011;9714;51.208;4.242;2022-10-19T14:39:56;19.33;;;5.22;;
19163;SDS011;9714;51.208;4.242;2022-10-19T14:42:34;18.92;;;5.07;;
19163;SDS011;9714;51.208;4.242;2022-10-19T14:45:14;13.02;;;4.63;;
19163;SDS011;9714;51.208;4.242;2022-10-19T14:47:53;16.77;;;5.18;;
19163;SDS011;9714;51.208;4.242;2022-10-19T14:50:27;16.20;;;5.18;;
19163;SDS011;9714;51.208;4.242;2022-10-19T14:53:13;13.13;;;5.07;;
19163;SDS011;9714;51.208;4.242;2022-10-19T14:55:47;18.02;;;5.45;;
19163;SDS011;9714;51.208;4.242;2022-10-19T14:58:19;13.27;;;4.40;;
19163;SDS011;9714;51.208;4.242;2022-10-19T15:00:50;18.02;;;4.70;;
19163;SDS011;9714;51.208;4.242;2022-10-19T15:03:23;16.90;;;4.93;;
19163;SDS011;9714;51.208;4.242;2022-10-19T15:05:56;14.07;;;4.20;;
19163;SDS011;9714;51.208;4.242;2022-10-19T15:08:38;16.75;;;4.72;;
19163;SDS011;9714;51.208;4.242;2022-10-19T15:11:08;16.30;;;4.45;;
19163;SDS011;9714;51.208;4.242;2022-10-19T15:16:45;14.07;;;4.87;;
19163;SDS011;9714;51.208;4.242;2022-10-19T15:19:18;14.77;;;4.70;;
19163;SDS011;9714;51.208;4.242;2022-10-19T15:22:06;14.07;;;4.60;;
19163;SDS011;9714;51.208;4.242;2022-10-19T15:24:40;12.93;;;4.43;;
19163;SDS011;9714;51.208;4.242;2022-10-19T15:27:21;22.10;;;6.07;;
19163;SDS011;9714;51.208;4.242;2022-10-19T15:29:56;19.70;;;4.60;;
19163;SDS011;9714;51.208;4.242;2022-10-19T15:32:29;17.70;;;5.03;;
19163;SDS011;9714;51.208;4.242;2022-10-19T15:35:07;18.73;;;5.27;;
19163;SDS011;9714;51.208;4.242;2022-10-19T15:37:35;17.80;;;4.60;;
19163;SDS011;9714;51.208;4.242;2022-10-19T15:40:09;17.97;;;4.87;;
19163;SDS011;9714;51.208;4.242;2022-10-19T15:42:39;16.60;;;4.73;;
19163;SDS011;9714;51.208;4.242;2022-10-19T15:54:22;14.40;;;5.07;;
19163;SDS011;9714;51.208;4.242;2022-10-19T15:56:52;16.30;;;4.83;;
19163;SDS011;9714;51.208;4.242;2022-10-19T15:59:26;13.07;;;4.50;;
19163;SDS011;9714;51.208;4.242;2022-10-19T16:01:56;15.40;;;4.67;;
19163;SDS011;9714;51.208;4.242;2022-10-19T16:04:24;13.87;;;4.23;;
19163;SDS011;9714;51.208;4.242;2022-10-19T16:06:51;13.90;;;4.00;;
19163;SDS011;9714;51.208;4.242;2022-10-19T16:09:22;14.77;;;4.07;;
19163;SDS011;9714;51.208;4.242;2022-10-19T16:18:33;20.97;;;4.60;;
19163;SDS011;9714;51.208;4.242;2022-10-19T17:43:54;18.63;;;6.83;;
19163;SDS011;9714;51.208;4.242;2022-10-19T17:46:23;17.97;;;6.63;;
19163;SDS011;9714;51.208;4.242;2022-10-19T17:48:52;20.47;;;6.50;;
19163;SDS011;9714;51.208;4.242;2022-10-19T17:51:22;21.40;;;5.87;;
19163;SDS011;9714;51.208;4.242;2022-10-19T17:53:53;15.40;;;7.70;;
19163;SDS011;9714;51.208;4.242;2022-10-19T17:56:21;19.03;;;6.90;;
19163;SDS011;9714;51.208;4.242;2022-10-19T17:58:51;21.40;;;6.73;;
19163;SDS011;9714;51.208;4.242;2022-10-19T18:01:21;17.57;;;7.23;;
19163;SDS011;9714;51.208;4.242;2022-10-19T18:03:52;24.07;;;7.37;;
19163;SDS011;9714;51.208;4.242;2022-10-19T18:06:21;22.80;;;7.27;;
19163;SDS011;9714;51.208;4.242;2022-10-19T18:08:54;20.17;;;6.80;;
19163;SDS011;9714;51.208;4.242;2022-10-19T18:11:23;21.17;;;6.63;;
19163;SDS011;9714;51.208;4.242;2022-10-19T18:13:55;19.10;;;6.80;;
19163;SDS011;9714;51.208;4.242;2022-10-19T18:16:26;20.17;;;7.20;;
19163;SDS011;9714;51.208;4.242;2022-10-19T18:18:57;17.87;;;6.30;;
19163;SDS011;9714;51.208;4.242;2022-10-19T18:21:28;16.93;;;7.07;;
19163;SDS011;9714;51.208;4.242;2022-10-19T18:24:01;15.43;;;6.10;;
19163;SDS011;9714;51.208;4.242;2022-10-19T18:26:37;14.07;;;5.53;;
19163;SDS011;9714;51.208;4.242;2022-10-19T18:29:09;21.07;;;6.33;;
19163;SDS011;9714;51.208;4.242;2022-10-19T18:31:43;19.83;;;6.67;;
19163;SDS011;9714;51.208;4.242;2022-10-19T18:34:21;17.57;;;7.30;;
19163;SDS011;9714;51.208;4.242;2022-10-19T18:36:51;20.73;;;6.27;;
19163;SDS011;9714;51.208;4.242;2022-10-19T18:39:21;16.27;;;6.13;;
19163;SDS011;9714;51.208;4.242;2022-10-19T18:41:51;17.07;;;6.43;;
19163;SDS011;9714;51.208;4.242;2022-10-19T18:44:22;24.30;;;6.83;;
19163;SDS011;9714;51.208;4.242;2022-10-19T18:46:54;21.50;;;7.70;;
19163;SDS011;9714;51.208;4.242;2022-10-19T18:49:22;19.43;;;9.20;;
19163;SDS011;9714;51.208;4.242;2022-10-19T18:51:52;14.37;;;6.97;;
19163;SDS011;9714;51.208;4.242;2022-10-19T18:54:19;21.77;;;6.20;;
19163;SDS011;9714;51.208;4.242;2022-10-19T18:56:49;22.90;;;6.40;;
19163;SDS011;9714;51.208;4.242;2022-10-19T18:59:25;18.03;;;6.40;;
19163;SDS011;9714;51.208;4.242;2022-10-19T19:01:58;22.83;;;7.40;;
19163;SDS011;9714;51.208;4.242;2022-10-19T19:04:27;15.80;;;6.43;;
19163;SDS011;9714;51.208;4.242;2022-10-19T19:07:08;19.00;;;6.00;;
19163;SDS011;9714;51.208;4.242;2022-10-19T19:09:42;16.63;;;6.13;;
19163;SDS011;9714;51.208;4.242;2022-10-19T19:12:09;22.67;;;6.30;;
19163;SDS011;9714;51.208;4.242;2022-10-19T19:17:32;18.67;;;5.60;;
19163;SDS011;9714;51.208;4.242;2022-10-19T19:20:05;20.17;;;6.57;;
19163;SDS011;9714;51.208;4.242;2022-10-19T19:28:00;17.73;;;6.47;;
19163;SDS011;9714;51.208;4.242;2022-10-19T19:30:35;16.83;;;5.60;;
19163;SDS011;9714;51.208;4.242;2022-10-19T19:33:14;16.13;;;5.30;;
19163;SDS011;9714;51.208;4.242;2022-10-19T19:35:53;15.00;;;6.73;;
19163;SDS011;9714;51.208;4.242;2022-10-19T19:38:22;16.57;;;6.10;;
19163;SDS011;9714;51.208;4.242;2022-10-19T19:44:17;14.50;;;6.50;;
19163;SDS011;9714;51.208;4.242;2022-10-19T19:47:00;17.03;;;6.10;;
19163;SDS011;9714;51.208;4.242;2022-10-19T19:52:16;23.97;;;7.27;;
19163;SDS011;9714;51.208;4.242;2022-10-19T19:55:07;17.87;;;6.00;;
19163;SDS011;9714;51.208;4.242;2022-10-19T19:58:02;15.20;;;6.27;;
19163;SDS011;9714;51.208;4.242;2022-10-19T20:00:52;20.50;;;6.17;;
19163;SDS011;9714;51.208;4.242;2022-10-19T20:04:01;14.23;;;5.83;;
19163;SDS011;9714;51.208;4.242;2022-10-19T20:06:38;18.27;;;6.30;;
19163;SDS011;9714;51.208;4.242;2022-10-19T20:09:55;20.57;;;6.23;;
19163;SDS011;9714;51.208;4.242;2022-10-19T20:19:06;16.40;;;5.80;;
19163;SDS011;9714;51.208;4.242;2022-10-19T20:21:43;24.07;;;6.17;;
19163;SDS011;9714;51.208;4.242;2022-10-19T20:24:10;17.13;;;6.60;;
19163;SDS011;9714;51.208;4.242;2022-10-19T20:26:38;14.97;;;7.27;;
19163;SDS011;9714;51.208;4.242;2022-10-19T20:29:06;18.07;;;6.77;;
19163;SDS011;9714;51.208;4.242;2022-10-19T20:31:34;24.33;;;6.60;;
19163;SDS011;9714;51.208;4.242;2022-10-19T20:34:07;17.80;;;6.40;;
19163;SDS011;9714;51.208;4.242;2022-10-19T20:36:37;20.67;;;5.87;;
19163;SDS011;9714;51.208;4.242;2022-10-19T20:39:09;19.17;;;6.87;;
19163;SDS011;9714;51.208;4.242;2022-10-19T20:41:41;16.27;;;6.87;;
19163;SDS011;9714;51.208;4.242;2022-10-19T20:44:14;15.10;;;6.03;;
19163;SDS011;9714;51.208;4.242;2022-10-19T20:46:47;18.93;;;6.13;;
19163;SDS011;9714;51.208;4.242;2022-10-19T20:49:22;18.97;;;7.13;;
19163;SDS011;9714;51.208;4.242;2022-10-19T20:54:46;23.00;;;6.30;;
19163;SDS011;9714;51.208;4.242;2022-10-19T20:57:26;16.23;;;6.77;;
19163;SDS011;9714;51.208;4.242;2022-10-19T21:05:33;16.37;;;6.87;;
19163;SDS011;9714;51.208;4.242;2022-10-19T21:14:26;19.00;;;7.27;;
19163;SDS011;9714;51.208;4.242;2022-10-19T21:19:46;16.37;;;6.73;;
19163;SDS011;9714;51.208;4.242;2022-10-19T21:22:20;21.93;;;7.17;;
19163;SDS011;9714;51.208;4.242;2022-10-19T21:24:50;25.27;;;7.53;;
19163;SDS011;9714;51.208;4.242;2022-10-19T21:27:36;25.73;;;7.23;;
19163;SDS011;9714;51.208;4.242;2022-10-19T21:36:38;19.43;;;6.80;;
19163;SDS011;9714;51.208;4.242;2022-10-19T21:49:00;19.17;;;7.33;;
19163;SDS011;9714;51.208;4.242;2022-10-19T21:51:30;21.93;;;7.60;;
19163;SDS011;9714;51.208;4.242;2022-10-19T21:53:59;18.43;;;7.20;;
19163;SDS011;9714;51.208;4.242;2022-10-19T21:56:30;17.60;;;6.60;;
19163;SDS011;9714;51.208;4.242;2022-10-19T21:59:10;22.37;;;7.77;;
19163;SDS011;9714;51.208;4.242;2022-10-19T22:01:41;19.93;;;8.13;;
19163;SDS011;9714;51.208;4.242;2022-10-19T22:04:10;19.73;;;7.37;;
19163;SDS011;9714;51.208;4.242;2022-10-19T22:06:43;21.23;;;8.30;;
19163;SDS011;9714;51.208;4.242;2022-10-19T22:09:11;21.63;;;8.07;;
19163;SDS011;9714;51.208;4.242;2022-10-19T22:11:40;18.13;;;7.50;;
19163;SDS011;9714;51.208;4.242;2022-10-19T22:17:11;19.80;;;8.33;;
19163;SDS011;9714;51.208;4.242;2022-10-19T22:19:44;23.57;;;8.37;;
19163;SDS011;9714;51.208;4.242;2022-10-19T22:22:23;23.40;;;8.63;;
19163;SDS011;9714;51.208;4.242;2022-10-19T22:24:58;17.33;;;8.23;;
19163;SDS011;9714;51.208;4.242;2022-10-19T22:27:25;20.60;;;8.70;;
19163;SDS011;9714;51.208;4.242;2022-10-19T22:29:52;18.87;;;9.03;;
19163;SDS011;9714;51.208;4.242;2022-10-19T22:32:34;19.23;;;9.93;;
19163;SDS011;9714;51.208;4.242;2022-10-19T22:38:22;19.10;;;8.90;;
19163;SDS011;9714;51.208;4.242;2022-10-19T22:44:13;18.03;;;9.30;;
19163;SDS011;9714;51.208;4.242;2022-10-19T22:46:46;21.67;;;8.30;;
19163;SDS011;9714;51.208;4.242;2022-10-19T22:52:13;24.30;;;9.13;;
19163;SDS011;9714;51.208;4.242;2022-10-19T22:54:41;22.27;;;9.30;;
19163;SDS011;9714;51.208;4.242;2022-10-19T22:57:09;18.37;;;9.37;;
19163;SDS011;9714;51.208;4.242;2022-10-19T22:59:36;18.07;;;10.07;;
19163;SDS011;9714;51.208;4.242;2022-10-19T23:02:09;23.60;;;9.43;;
19163;SDS011;9714;51.208;4.242;2022-10-19T23:04:43;19.97;;;8.40;;
19163;SDS011;9714;51.208;4.242;2022-10-19T23:09:41;22.57;;;9.43;;
19163;SDS011;9714;51.208;4.242;2022-10-19T23:12:09;20.50;;;10.27;;
19163;SDS011;9714;51.208;4.242;2022-10-19T23:14:40;23.17;;;9.30;;
19163;SDS011;9714;51.208;4.242;2022-10-19T23:17:21;23.40;;;9.73;;
19163;SDS011;9714;51.208;4.242;2022-10-19T23:20:16;25.53;;;9.53;;
19163;SDS011;9714;51.208;4.242;2022-10-19T23:23:03;33.17;;;9.67;;
19163;SDS011;9714;51.208;4.242;2022-10-19T23:36:16;29.67;;;10.77;;
19163;SDS011;9714;51.208;4.242;2022-10-19T23:38:48;20.83;;;10.53;;
19163;SDS011;9714;51.208;4.242;2022-10-19T23:44:10;24.40;;;10.90;;
19163;SDS011;9714;51.208;4.242;2022-10-19T23:46:41;20.77;;;10.83;;
19163;SDS011;9714;51.208;4.242;2022-10-19T23:49:14;23.17;;;11.20;;
19163;SDS011;9714;51.208;4.242;2022-10-19T23:51:42;23.73;;;11.13;;
19163;SDS011;9714;51.208;4.242;2022-10-19T23:54:15;20.53;;;10.03;;
19163;SDS011;9714;51.208;4.242;2022-10-19T23:56:44;25.83;;;11.37;;
19163;SDS011;9714;51.208;4.242;2022-10-19T23:59:11;21.50;;;10.90;;
